Time;durP1;ratioP1;P1;durP2;ratioP2;P2;SDS_P1;SDS_P2;PMS_P1;PMS_P2;Temp;Humidity;BMP_temperature;BMP_pressure;BME280_temperature;BME280_humidity;BME280_pressure;Samples;Min_cycle;Max_cycle;Signal;HPM_P1;HPM_P2
2022/12/09 00:00:52;;;;;;;80.40;34.13;;;1.70;99.90;;;;;;5025143;28;20558;-71
2022/12/09 00:03:19;;;;;;;70.43;30.15;;;1.60;99.90;;;;;;5009846;28;20048;-72
2022/12/09 00:05:49;;;;;;;74.93;30.35;;;1.50;99.90;;;;;;5021614;28;20091;-72
2022/12/09 00:08:16;;;;;;;98.50;35.80;;;1.60;99.90;;;;;;5028564;28;20562;-72
2022/12/09 00:10:44;;;;;;;71.20;29.73;;;1.70;99.90;;;;;;5006998;28;20046;-72
2022/12/09 00:13:11;;;;;;;109.78;40.30;;;1.60;99.90;;;;;;5027602;28;20313;-72
2022/12/09 00:15:41;;;;;;;101.90;39.63;;;1.50;99.90;;;;;;5031880;28;20423;-72
2022/12/09 00:18:09;;;;;;;69.68;30.05;;;1.50;99.90;;;;;;5023064;28;20052;-72
2022/12/09 00:20:35;;;;;;;72.15;30.73;;;1.60;99.90;;;;;;5010483;28;20041;-72
2022/12/09 00:23:02;;;;;;;78.10;29.20;;;1.50;99.90;;;;;;5024309;28;20403;-72
2022/12/09 00:25:29;;;;;;;97.18;37.55;;;1.40;99.90;;;;;;5028189;28;21497;-72
2022/12/09 00:27:56;;;;;;;102.13;35.15;;;1.50;99.90;;;;;;5019024;28;20718;-71
2022/12/09 00:30:23;;;;;;;80.68;33.05;;;1.50;99.90;;;;;;5024363;28;20114;-72
2022/12/09 00:32:50;;;;;;;97.22;33.88;;;1.50;99.90;;;;;;5007693;28;20281;-70
2022/12/09 00:35:16;;;;;;;95.65;33.97;;;1.50;99.90;;;;;;5020608;28;20064;-71
2022/12/09 00:37:43;;;;;;;95.40;35.17;;;1.40;99.90;;;;;;5027704;28;20282;-70
2022/12/09 00:40:11;;;;;;;89.90;34.63;;;1.50;99.90;;;;;;5009326;28;20038;-71
2022/12/09 00:42:38;;;;;;;101.30;35.92;;;1.40;99.90;;;;;;5028059;28;20166;-70
2022/12/09 00:45:06;;;;;;;102.97;33.90;;;1.30;99.90;;;;;;5023258;28;20041;-72
2022/12/09 00:47:34;;;;;;;104.65;36.15;;;1.30;99.90;;;;;;5026262;28;20045;-71
2022/12/09 00:50:01;;;;;;;97.85;34.95;;;1.40;99.90;;;;;;5007004;28;20291;-71
2022/12/09 00:52:29;;;;;;;105.30;35.20;;;1.40;99.90;;;;;;5014614;28;20052;-71
2022/12/09 00:54:56;;;;;;;89.82;35.15;;;1.40;99.90;;;;;;5022774;28;20045;-69
2022/12/09 00:57:22;;;;;;;113.32;37.70;;;1.30;99.90;;;;;;5018027;28;20048;-70
2022/12/09 00:59:49;;;;;;;110.68;38.00;;;1.30;99.90;;;;;;5020868;28;20060;-70
2022/12/09 01:02:16;;;;;;;120.05;38.63;;;1.40;99.90;;;;;;5006445;28;20080;-71
2022/12/09 01:04:43;;;;;;;98.45;34.72;;;1.30;99.90;;;;;;5010694;28;20136;-70
2022/12/09 01:07:10;;;;;;;105.15;37.33;;;1.30;99.90;;;;;;5009340;28;20132;-71
2022/12/09 01:09:38;;;;;;;110.65;37.97;;;1.30;99.90;;;;;;5025464;28;20059;-71
2022/12/09 01:12:05;;;;;;;98.15;34.47;;;1.30;99.90;;;;;;5023165;28;20511;-71
2022/12/09 01:14:32;;;;;;;115.78;39.83;;;1.30;99.90;;;;;;5030129;28;20344;-71
2022/12/09 01:16:58;;;;;;;116.47;38.65;;;1.20;99.90;;;;;;5008085;28;20449;-71
2022/12/09 01:19:26;;;;;;;124.18;37.95;;;1.20;99.90;;;;;;5011183;28;20057;-70
2022/12/09 01:21:54;;;;;;;124.13;37.08;;;1.20;99.90;;;;;;5031615;28;20132;-70
2022/12/09 01:24:21;;;;;;;194.80;45.75;;;1.10;99.90;;;;;;5028269;28;20053;-71
2022/12/09 01:26:48;;;;;;;100.82;31.27;;;1.20;99.90;;;;;;5008854;28;20049;-71
2022/12/09 01:29:15;;;;;;;108.90;33.70;;;1.20;99.90;;;;;;5003933;28;20045;-72
2022/12/09 01:31:42;;;;;;;108.63;34.58;;;1.10;99.90;;;;;;5019132;28;20132;-70
2022/12/09 01:34:09;;;;;;;130.90;40.13;;;1.10;99.90;;;;;;5004790;28;20451;-71
2022/12/09 01:36:35;;;;;;;116.32;35.00;;;1.10;99.90;;;;;;5012474;28;20483;-71
2022/12/09 01:39:03;;;;;;;116.53;36.70;;;1.10;99.90;;;;;;5027250;28;20038;-71
2022/12/09 01:41:30;;;;;;;114.57;37.33;;;1.10;99.90;;;;;;5027730;28;20144;-72
2022/12/09 01:44:17;;;;;;;125.93;38.03;;;1.20;99.90;;;;;;5023345;28;20041;-70
2022/12/09 01:46:45;;;;;;;124.00;39.33;;;1.30;99.90;;;;;;5009015;28;20045;-71
2022/12/09 01:49:37;;;;;;;116.47;37.85;;;1.30;99.90;;;;;;5009631;28;20041;-71
2022/12/09 01:52:18;;;;;;;126.63;36.47;;;1.30;99.90;;;;;;5003457;28;20050;-72
2022/12/09 01:54:47;;;;;;;136.48;40.70;;;1.40;99.90;;;;;;4993839;28;20139;-72
2022/12/09 01:57:14;;;;;;;123.68;39.33;;;1.40;99.90;;;;;;5022738;28;20920;-71
2022/12/09 01:59:42;;;;;;;125.43;39.80;;;1.40;99.90;;;;;;5009253;28;20389;-71
2022/12/09 02:02:13;;;;;;;138.95;38.53;;;1.40;99.90;;;;;;5006107;28;20057;-71
2022/12/09 02:04:44;;;;;;;132.45;41.60;;;1.40;99.90;;;;;;5015333;28;20041;-71
2022/12/09 02:07:11;;;;;;;135.00;40.20;;;1.40;99.90;;;;;;5005496;28;20041;-71
2022/12/09 02:09:40;;;;;;;121.50;38.80;;;1.50;99.90;;;;;;5014076;28;20530;-70
2022/12/09 02:12:23;;;;;;;111.97;35.83;;;1.50;99.90;;;;;;4998503;28;20546;-71
2022/12/09 02:14:57;;;;;;;107.97;38.47;;;1.50;99.90;;;;;;5004288;28;20057;-71
2022/12/09 02:17:32;;;;;;;150.05;42.67;;;1.40;99.90;;;;;;5011315;28;20049;-71
2022/12/09 02:20:28;;;;;;;143.40;42.30;;;1.60;99.90;;;;;;5024081;28;20309;-71
2022/12/09 02:23:15;;;;;;;130.95;42.08;;;1.60;99.90;;;;;;5019114;28;20057;-71
2022/12/09 02:25:47;;;;;;;171.48;44.80;;;1.60;99.90;;;;;;5005447;28;20065;-71
2022/12/09 02:28:35;;;;;;;156.63;44.75;;;1.60;99.90;;;;;;4995716;28;20064;-70
2022/12/09 02:31:30;;;;;;;187.13;46.20;;;1.60;99.90;;;;;;5000154;28;20045;-71
2022/12/09 02:34:20;;;;;;;177.45;46.20;;;1.60;99.90;;;;;;5008186;28;20103;-70
2022/12/09 02:37:07;;;;;;;164.05;47.20;;;1.50;99.90;;;;;;5008497;28;20056;-70
2022/12/09 02:40:07;;;;;;;161.18;46.00;;;1.50;99.90;;;;;;5016608;28;20059;-71
2022/12/09 02:42:39;;;;;;;151.00;46.28;;;1.50;99.90;;;;;;5011114;28;20186;-71
2022/12/09 02:45:09;;;;;;;186.30;48.40;;;1.40;99.90;;;;;;5022042;28;20220;-71
2022/12/09 02:47:45;;;;;;;148.70;45.35;;;1.40;99.90;;;;;;5007625;28;20072;-71
2022/12/09 02:50:17;;;;;;;143.40;47.28;;;1.30;99.90;;;;;;5009295;28;20291;-70
2022/12/09 02:52:46;;;;;;;174.13;49.70;;;1.30;99.90;;;;;;5001838;28;20068;-73
2022/12/09 02:55:15;;;;;;;148.73;44.75;;;1.20;99.90;;;;;;5011079;28;20045;-71
2022/12/09 02:57:42;;;;;;;159.13;45.85;;;1.20;99.90;;;;;;5014474;28;20048;-71
2022/12/09 03:00:14;;;;;;;157.43;48.78;;;1.20;99.90;;;;;;5010898;28;20107;-71
2022/12/09 03:02:51;;;;;;;171.93;49.40;;;1.20;99.90;;;;;;5006835;28;20144;-71
2022/12/09 03:05:24;;;;;;;155.60;47.92;;;1.30;99.90;;;;;;5024017;28;20499;-73
2022/12/09 03:08:34;;;;;;;189.77;47.33;;;1.20;99.90;;;;;;5029493;28;20523;-73
2022/12/09 03:11:13;;;;;;;172.93;45.65;;;1.10;99.90;;;;;;4992468;28;20384;-73
2022/12/09 03:13:40;;;;;;;168.88;46.60;;;1.00;99.90;;;;;;5020234;28;20132;-73
2022/12/09 03:16:13;;;;;;;167.30;46.33;;;0.90;99.90;;;;;;5046285;23;20045;-77
2022/12/09 03:18:46;;;;;;;159.43;45.73;;;0.90;99.90;;;;;;4994857;28;20398;-79
2022/12/09 03:21:17;;;;;;;156.98;45.05;;;0.90;99.90;;;;;;5001759;28;20932;-77
2022/12/09 03:23:45;;;;;;;200.93;46.67;;;0.80;99.90;;;;;;4985507;28;20054;-79
2022/12/09 03:26:14;;;;;;;200.88;46.83;;;0.80;99.90;;;;;;4989963;28;20038;-80
2022/12/09 03:28:46;;;;;;;210.05;48.90;;;0.90;99.90;;;;;;4996797;28;20053;-79
2022/12/09 03:31:17;;;;;;;161.05;45.38;;;1.00;99.90;;;;;;5002783;28;20045;-80
2022/12/09 03:33:49;;;;;;;170.10;47.33;;;1.10;99.90;;;;;;4974590;28;20057;-80
2022/12/09 03:36:18;;;;;;;175.25;47.33;;;1.10;99.90;;;;;;4990894;28;20053;-80
2022/12/09 03:38:47;;;;;;;152.02;43.72;;;1.00;99.90;;;;;;5008280;28;20057;-80
2022/12/09 03:41:29;;;;;;;167.32;45.92;;;1.00;99.90;;;;;;4990837;28;20050;-79
2022/12/09 03:44:16;;;;;;;169.63;45.65;;;1.10;99.90;;;;;;5014714;28;20558;-81
2022/12/09 03:46:43;;;;;;;158.77;42.15;;;1.10;99.90;;;;;;4997310;28;20049;-79
2022/12/09 03:49:11;;;;;;;160.50;43.58;;;1.20;99.90;;;;;;4998709;28;20050;-80
2022/12/09 03:51:54;;;;;;;172.98;44.72;;;1.20;99.90;;;;;;5015698;28;20049;-78
2022/12/09 03:54:33;;;;;;;176.93;45.38;;;1.20;99.90;;;;;;5028619;28;20509;-78
2022/12/09 03:57:01;;;;;;;160.05;45.20;;;1.20;99.90;;;;;;5006634;28;20121;-80
2022/12/09 03:59:30;;;;;;;163.65;48.45;;;1.20;99.90;;;;;;5005808;28;20443;-78
2022/12/09 04:01:57;;;;;;;170.55;47.78;;;1.20;99.90;;;;;;5010232;28;20037;-78
2022/12/09 04:04:26;;;;;;;171.05;50.35;;;1.30;99.90;;;;;;4997370;28;20077;-80
2022/12/09 04:06:53;;;;;;;174.55;48.97;;;1.40;99.90;;;;;;5009680;28;20045;-78
2022/12/09 04:09:20;;;;;;;163.30;47.42;;;1.20;99.90;;;;;;5000790;28;20093;-78
2022/12/09 04:11:48;;;;;;;182.88;46.42;;;1.20;99.90;;;;;;5000644;28;20045;-83
2022/12/09 04:14:15;;;;;;;164.63;46.90;;;1.30;99.90;;;;;;4978514;28;20049;-81
2022/12/09 04:16:42;;;;;;;213.38;51.38;;;1.20;99.90;;;;;;5000739;28;20387;-78
2022/12/09 04:19:10;;;;;;;177.02;50.35;;;1.10;99.90;;;;;;4994729;28;20430;-79
2022/12/09 04:21:36;;;;;;;172.98;50.30;;;1.10;99.90;;;;;;4996896;28;20407;-77
2022/12/09 04:24:03;;;;;;;168.18;49.33;;;1.10;99.90;;;;;;5009002;28;20046;-78
2022/12/09 04:26:30;;;;;;;171.63;50.85;;;1.00;99.90;;;;;;5022197;28;20168;-78
2022/12/09 04:28:57;;;;;;;175.60;49.33;;;1.00;99.90;;;;;;4993051;28;20096;-77
2022/12/09 04:31:25;;;;;;;204.40;51.95;;;1.10;99.90;;;;;;5016869;28;20050;-76
2022/12/09 04:33:52;;;;;;;184.88;49.78;;;1.10;99.90;;;;;;4981516;28;20160;-76
2022/12/09 04:36:20;;;;;;;196.98;52.55;;;1.10;99.90;;;;;;4976918;28;20121;-78
2022/12/09 04:38:47;;;;;;;221.90;54.58;;;1.10;99.90;;;;;;4998087;28;20072;-79
2022/12/09 04:41:14;;;;;;;193.63;51.17;;;1.00;99.90;;;;;;5014747;28;20045;-76
2022/12/09 04:43:41;;;;;;;176.85;46.42;;;1.00;99.90;;;;;;5017572;28;20058;-76
2022/12/09 04:46:12;;;;;;;175.60;46.72;;;0.80;99.90;;;;;;4998574;28;20621;-76
2022/12/09 04:48:40;;;;;;;178.32;45.85;;;0.70;99.90;;;;;;4985926;28;20067;-76
2022/12/09 04:51:11;;;;;;;166.25;42.25;;;0.70;99.90;;;;;;5016537;28;20046;-78
2022/12/09 04:53:39;;;;;;;151.93;42.88;;;0.70;99.90;;;;;;4999126;28;20050;-80
2022/12/09 04:56:14;;;;;;;165.23;40.95;;;0.70;99.90;;;;;;5013714;28;20063;-77
2022/12/09 04:58:43;;;;;;;169.63;41.83;;;0.60;99.90;;;;;;5005768;28;20061;-78
2022/12/09 05:01:15;;;;;;;142.75;41.53;;;0.60;99.90;;;;;;5002220;28;20136;-75
2022/12/09 05:03:51;;;;;;;147.15;39.65;;;0.70;99.90;;;;;;4997316;28;20042;-75
2022/12/09 05:06:19;;;;;;;127.40;40.90;;;0.80;99.90;;;;;;5016527;28;20091;-77
2022/12/09 05:08:47;;;;;;;173.90;43.60;;;0.80;99.90;;;;;;5000597;28;20414;-76
2022/12/09 05:11:15;;;;;;;167.70;43.33;;;0.90;99.90;;;;;;4995067;28;20104;-77
2022/12/09 05:13:42;;;;;;;175.95;43.25;;;1.00;99.90;;;;;;5006284;28;20081;-77
2022/12/09 05:16:12;;;;;;;165.60;44.70;;;1.00;99.90;;;;;;5003341;28;20053;-77
2022/12/09 05:18:43;;;;;;;156.18;41.75;;;1.00;99.90;;;;;;5010700;28;20104;-77
2022/12/09 05:21:14;;;;;;;146.07;42.28;;;1.20;99.90;;;;;;4994543;28;20049;-77
2022/12/09 05:23:42;;;;;;;157.73;43.33;;;1.20;99.90;;;;;;5016823;28;20140;-77
2022/12/09 05:26:11;;;;;;;141.65;46.28;;;1.10;99.90;;;;;;4998690;28;20042;-77
2022/12/09 05:28:38;;;;;;;170.48;54.08;;;1.10;99.90;;;;;;5003527;28;20049;-77
2022/12/09 05:31:08;;;;;;;151.38;51.83;;;1.10;99.90;;;;;;4989463;28;20046;-76
2022/12/09 05:33:36;;;;;;;171.48;46.40;;;1.00;99.90;;;;;;4996226;28;20144;-75
2022/12/09 05:36:08;;;;;;;153.05;45.25;;;1.00;99.90;;;;;;4999414;28;20038;-76
2022/12/09 05:38:35;;;;;;;102.82;36.28;;;1.10;99.90;;;;;;4998761;28;20081;-77
2022/12/09 05:41:05;;;;;;;106.05;34.95;;;1.10;99.90;;;;;;4989960;28;20697;-76
2022/12/09 05:43:33;;;;;;;117.57;37.58;;;1.10;99.90;;;;;;5017147;28;20427;-77
2022/12/09 05:46:05;;;;;;;118.10;39.30;;;1.10;99.90;;;;;;5009242;28;20137;-78
2022/12/09 05:48:32;;;;;;;131.20;38.55;;;1.10;99.90;;;;;;4996237;28;20042;-77
2022/12/09 05:51:10;;;;;;;135.13;40.10;;;1.20;99.90;;;;;;5004576;28;20069;-76
2022/12/09 05:53:37;;;;;;;136.32;42.92;;;1.30;99.90;;;;;;5019543;28;20053;-79
2022/12/09 05:56:04;;;;;;;125.45;43.15;;;1.20;99.90;;;;;;5005272;28;20042;-77
2022/12/09 05:58:33;;;;;;;139.43;46.72;;;1.20;99.90;;;;;;4992298;28;20435;-75
2022/12/09 06:01:18;;;;;;;141.30;50.25;;;1.20;99.90;;;;;;4997414;28;20133;-78
2022/12/09 06:03:51;;;;;;;133.70;48.45;;;1.10;99.90;;;;;;4997277;28;20053;-78
2022/12/09 06:06:20;;;;;;;138.88;47.50;;;1.20;99.90;;;;;;5012715;28;20053;-77
2022/12/09 06:08:48;;;;;;;114.47;43.25;;;1.20;99.90;;;;;;5002544;28;20053;-79
2022/12/09 06:11:19;;;;;;;107.03;40.58;;;1.10;99.90;;;;;;5009749;28;20054;-78
2022/12/09 06:13:47;;;;;;;117.38;42.15;;;1.10;99.90;;;;;;5014890;28;20045;-78
2022/12/09 06:16:17;;;;;;;110.38;40.45;;;1.10;99.90;;;;;;5015631;28;20133;-76
2022/12/09 06:18:46;;;;;;;95.85;36.72;;;1.10;99.90;;;;;;5004537;28;20072;-79
2022/12/09 06:21:15;;;;;;;92.05;37.22;;;0.90;99.90;;;;;;4993940;28;20089;-76
2022/12/09 06:23:42;;;;;;;91.45;36.15;;;0.90;99.90;;;;;;5009387;28;20526;-78
2022/12/09 06:26:21;;;;;;;103.10;38.60;;;0.90;99.90;;;;;;4985637;28;20041;-77
2022/12/09 06:28:48;;;;;;;86.13;35.78;;;1.00;99.90;;;;;;4997442;28;20049;-77
2022/12/09 06:31:15;;;;;;;75.15;33.25;;;1.00;99.90;;;;;;5000130;28;20511;-76
2022/12/09 06:33:43;;;;;;;79.38;35.08;;;1.00;99.90;;;;;;5003188;28;20478;-77
2022/12/09 06:36:28;;;;;;;80.00;32.35;;;0.90;99.90;;;;;;4980987;28;20073;-77
2022/12/09 06:38:57;;;;;;;98.15;41.65;;;0.90;99.90;;;;;;4991581;28;20049;-78
2022/12/09 06:41:33;;;;;;;91.75;37.88;;;0.80;99.90;;;;;;4991474;28;20507;-77
2022/12/09 06:44:00;;;;;;;86.20;36.13;;;0.90;99.90;;;;;;5016350;28;20049;-78
2022/12/09 06:46:27;;;;;;;87.63;35.80;;;0.90;99.90;;;;;;4982449;28;20054;-78
2022/12/09 06:48:55;;;;;;;86.20;34.15;;;0.80;99.90;;;;;;4991104;28;20038;-77
2022/12/09 06:51:23;;;;;;;81.13;33.97;;;0.70;99.90;;;;;;5009466;28;20040;-77
2022/12/09 06:53:51;;;;;;;88.88;35.08;;;0.70;99.90;;;;;;4993914;28;20097;-78
2022/12/09 06:56:18;;;;;;;68.03;27.25;;;0.70;99.90;;;;;;5016900;28;20093;-78
2022/12/09 06:58:46;;;;;;;80.13;31.27;;;0.60;99.90;;;;;;5008071;28;20030;-76
2022/12/09 07:01:24;;;;;;;86.88;31.40;;;0.70;99.90;;;;;;4985680;28;20791;-76
2022/12/09 07:03:54;;;;;;;81.35;32.03;;;0.70;99.90;;;;;;4996436;28;20069;-78
2022/12/09 07:06:36;;;;;;;83.65;32.25;;;0.70;99.90;;;;;;5011662;28;20042;-78
2022/12/09 07:09:10;;;;;;;80.32;30.92;;;0.70;99.90;;;;;;5014386;28;20038;-77
2022/12/09 07:11:41;;;;;;;80.83;30.60;;;0.80;99.90;;;;;;5004804;28;20038;-78
2022/12/09 07:14:09;;;;;;;84.57;33.17;;;0.70;99.90;;;;;;5012229;28;20292;-78
2022/12/09 07:16:37;;;;;;;113.55;42.40;;;0.70;99.90;;;;;;4975327;28;20062;-76
2022/12/09 07:19:05;;;;;;;77.25;28.38;;;0.60;99.90;;;;;;5018458;28;20104;-77
2022/12/09 07:21:33;;;;;;;76.88;30.77;;;0.50;99.90;;;;;;4996445;28;20490;-76
2022/12/09 07:24:01;;;;;;;83.25;32.85;;;0.60;99.90;;;;;;4985449;28;20096;-75
2022/12/09 07:26:32;;;;;;;83.88;30.02;;;0.50;99.90;;;;;;4989906;28;20049;-76
2022/12/09 07:29:03;;;;;;;87.97;29.08;;;0.50;99.90;;;;;;5012899;28;20099;-76
2022/12/09 07:31:31;;;;;;;88.35;30.45;;;0.50;99.90;;;;;;4989638;28;20421;-76
2022/12/09 07:33:59;;;;;;;82.60;29.98;;;0.50;99.90;;;;;;4991764;28;20124;-78
2022/12/09 07:36:30;;;;;;;72.00;27.95;;;0.50;99.90;;;;;;5015926;28;20062;-78
2022/12/09 07:39:04;;;;;;;80.72;29.88;;;0.50;99.90;;;;;;5004304;28;20115;-76
2022/12/09 07:41:31;;;;;;;97.00;34.97;;;0.60;99.90;;;;;;4978448;28;21344;-76
2022/12/09 07:43:58;;;;;;;103.70;39.30;;;0.70;99.90;;;;;;5008068;28;20296;-75
2022/12/09 07:46:28;;;;;;;103.43;37.80;;;0.80;99.90;;;;;;5011877;28;20530;-76
2022/12/09 07:48:56;;;;;;;105.68;45.13;;;0.80;99.90;;;;;;5009801;28;20073;-76
2022/12/09 07:51:24;;;;;;;69.15;30.17;;;0.90;99.90;;;;;;5004557;28;20042;-77
2022/12/09 07:53:52;;;;;;;97.35;41.42;;;0.80;99.90;;;;;;5019742;28;20041;-77
2022/12/09 07:56:20;;;;;;;74.40;29.05;;;0.80;99.90;;;;;;4988845;28;20046;-76
2022/12/09 07:58:50;;;;;;;78.35;30.77;;;0.80;99.90;;;;;;4994137;28;20052;-77
2022/12/09 08:01:28;;;;;;;75.43;29.75;;;0.80;99.90;;;;;;5013238;28;20067;-78
2022/12/09 08:03:56;;;;;;;64.25;26.17;;;0.80;99.90;;;;;;4996249;28;20046;-77
2022/12/09 08:06:26;;;;;;;60.13;25.90;;;0.70;99.90;;;;;;5001314;28;20042;-76
2022/12/09 08:08:57;;;;;;;67.78;28.75;;;0.70;99.90;;;;;;5005178;28;20113;-75
2022/12/09 08:11:27;;;;;;;65.18;29.60;;;0.80;99.90;;;;;;4997282;28;20041;-76
2022/12/09 08:13:56;;;;;;;69.63;32.50;;;0.80;99.90;;;;;;4995998;28;20133;-76
2022/12/09 08:16:25;;;;;;;71.80;33.45;;;0.90;99.90;;;;;;4997569;28;20054;-76
2022/12/09 08:18:53;;;;;;;80.88;35.67;;;0.90;99.90;;;;;;4999212;28;20648;-76
2022/12/09 08:21:26;;;;;;;81.00;36.88;;;0.90;99.90;;;;;;5001464;28;20068;-76
2022/12/09 08:23:55;;;;;;;76.93;33.67;;;0.80;99.90;;;;;;4981949;28;20053;-76
2022/12/09 08:26:24;;;;;;;74.45;32.28;;;0.90;99.90;;;;;;5005203;28;20053;-78
2022/12/09 08:28:52;;;;;;;71.93;30.30;;;0.90;99.90;;;;;;5008057;28;20128;-77
2022/12/09 08:31:22;;;;;;;78.05;35.83;;;0.90;99.90;;;;;;5009953;28;20036;-77
2022/12/09 08:33:51;;;;;;;77.32;35.90;;;0.90;99.90;;;;;;5003375;28;20049;-77
2022/12/09 08:36:21;;;;;;;67.25;34.17;;;0.90;99.90;;;;;;5011145;28;20519;-77
2022/12/09 08:38:48;;;;;;;75.90;32.90;;;0.80;99.90;;;;;;4995677;28;20132;-75
2022/12/09 08:41:33;;;;;;;74.65;31.75;;;0.90;99.90;;;;;;5011621;28;20042;-76
2022/12/09 08:44:07;;;;;;;75.07;34.45;;;0.80;99.90;;;;;;4995667;28;20104;-76
2022/12/09 08:46:35;;;;;;;72.97;33.55;;;0.90;99.90;;;;;;4981978;28;20132;-75
2022/12/09 08:49:04;;;;;;;79.90;36.92;;;0.80;99.90;;;;;;4977654;28;20046;-79
2022/12/09 08:51:32;;;;;;;67.47;33.28;;;0.80;99.90;;;;;;5000210;28;20112;-76
2022/12/09 08:54:00;;;;;;;72.05;36.75;;;0.80;99.90;;;;;;5003066;28;20072;-78
2022/12/09 08:56:28;;;;;;;68.93;34.83;;;0.90;99.90;;;;;;4987690;28;20050;-76
2022/12/09 08:58:56;;;;;;;64.85;33.83;;;0.90;99.90;;;;;;4994126;28;20436;-78
2022/12/09 09:01:30;;;;;;;62.35;32.58;;;0.90;99.90;;;;;;4988871;28;20052;-76
2022/12/09 09:04:00;;;;;;;62.22;31.45;;;0.80;99.90;;;;;;4991856;28;20132;-76
2022/12/09 09:06:28;;;;;;;59.58;36.15;;;0.80;99.90;;;;;;5007846;28;20049;-77
2022/12/09 09:08:56;;;;;;;63.03;36.08;;;0.80;99.90;;;;;;5000282;23;20070;-73
2022/12/09 09:11:24;;;;;;;66.68;38.00;;;0.80;99.90;;;;;;4950075;28;20042;-73
2022/12/09 09:13:51;;;;;;;68.15;38.63;;;0.80;99.90;;;;;;4972788;28;20269;-73
2022/12/09 09:16:25;;;;;;;61.85;39.00;;;0.80;99.90;;;;;;4950577;28;20129;-74
2022/12/09 09:18:52;;;;;;;61.35;41.38;;;0.90;99.90;;;;;;4955578;28;20360;-73
2022/12/09 09:21:22;;;;;;;64.20;39.17;;;0.80;99.90;;;;;;4944044;28;20033;-74
2022/12/09 09:23:49;;;;;;;58.28;40.00;;;0.80;99.90;;;;;;4941592;28;20046;-73
2022/12/09 09:26:20;;;;;;;63.95;40.90;;;0.80;99.90;;;;;;4941503;28;20195;-74
2022/12/09 09:28:48;;;;;;;55.58;37.03;;;0.80;99.90;;;;;;4963795;28;20073;-73
2022/12/09 09:31:17;;;;;;;53.35;38.85;;;0.80;99.90;;;;;;4956674;28;20558;-73
2022/12/09 09:33:45;;;;;;;56.60;36.40;;;0.60;99.90;;;;;;4945806;28;20517;-73
2022/12/09 09:36:19;;;;;;;62.83;38.40;;;0.70;99.90;;;;;;4956875;28;20423;-73
2022/12/09 09:38:47;;;;;;;52.42;37.08;;;0.80;99.90;;;;;;4942493;28;20337;-74
2022/12/09 09:41:41;;;;;;;53.28;37.45;;;0.90;99.90;;;;;;4967223;28;20050;-74
2022/12/09 09:44:21;;;;;;;51.20;38.53;;;1.10;99.90;;;;;;4956931;28;20041;-74
2022/12/09 09:46:51;;;;;;;55.17;39.60;;;1.10;99.90;;;;;;4947100;28;20046;-74
2022/12/09 09:49:44;;;;;;;65.10;45.08;;;1.10;99.90;;;;;;4958325;28;20547;-72
2022/12/09 09:52:21;;;;;;;53.25;41.08;;;1.20;99.90;;;;;;4950936;28;20042;-73
2022/12/09 09:54:49;;;;;;;59.60;43.80;;;1.20;99.90;;;;;;4950010;28;20458;-74
2022/12/09 09:57:39;;;;;;;62.03;42.90;;;1.40;99.90;;;;;;4947078;28;20373;-73
2022/12/09 10:00:36;;;;;;;58.40;42.30;;;1.20;99.90;;;;;;4951769;28;20046;-73
2022/12/09 10:03:11;;;;;;;61.50;41.22;;;1.20;99.90;;;;;;4939424;28;20238;-73
2022/12/09 10:05:38;;;;;;;55.33;41.15;;;1.20;99.90;;;;;;4951152;28;20627;-73
2022/12/09 10:08:11;;;;;;;62.95;44.45;;;1.20;99.90;;;;;;4946462;28;20046;-73
2022/12/09 10:10:51;;;;;;;63.85;45.53;;;1.40;99.90;;;;;;4938069;28;20523;-74
2022/12/09 10:13:45;;;;;;;60.72;46.08;;;1.40;99.90;;;;;;4954461;28;20055;-74
2022/12/09 10:16:17;;;;;;;67.35;47.05;;;1.40;99.90;;;;;;4938767;28;20046;-74
2022/12/09 10:19:07;;;;;;;70.20;49.38;;;1.40;99.90;;;;;;4949284;28;20062;-73
2022/12/09 10:21:39;;;;;;;53.42;43.30;;;1.50;99.90;;;;;;4956741;28;20101;-74
2022/12/09 10:24:24;;;;;;;59.63;44.72;;;1.40;99.90;;;;;;4939834;28;20046;-74
2022/12/09 10:27:07;;;;;;;59.28;46.17;;;1.50;99.90;;;;;;4950983;28;20097;-73
2022/12/09 10:29:57;;;;;;;60.65;45.70;;;1.40;99.90;;;;;;4951243;28;20050;-74
2022/12/09 10:32:28;;;;;;;59.10;46.05;;;1.40;99.90;;;;;;4942579;28;20543;-74
2022/12/09 10:34:56;;;;;;;56.85;43.97;;;1.40;99.90;;;;;;4961560;28;20137;-73
2022/12/09 10:37:26;;;;;;;52.15;44.65;;;1.30;99.90;;;;;;4957958;28;20054;-73
2022/12/09 10:40:00;;;;;;;54.35;43.83;;;1.20;99.90;;;;;;4948425;28;20057;-73
2022/12/09 10:45:15;;;;;;;54.95;42.33;;;1.10;99.90;;;;;;4951049;28;20045;-73
2022/12/09 10:47:48;;;;;;;60.47;43.03;;;0.90;99.90;;;;;;4949717;28;20125;-73
2022/12/09 10:50:35;;;;;;;65.50;43.42;;;0.90;99.90;;;;;;4964171;28;20094;-73
2022/12/09 10:53:06;;;;;;;81.57;52.60;;;1.10;99.90;;;;;;4945215;28;20045;-73
2022/12/09 10:55:37;;;;;;;71.03;47.95;;;1.20;99.90;;;;;;4954933;28;20358;-73
2022/12/09 10:58:14;;;;;;;58.30;40.40;;;1.00;99.90;;;;;;4947907;28;20129;-75
2022/12/09 11:00:41;;;;;;;62.65;38.95;;;1.00;99.90;;;;;;4947306;28;21183;-73
2022/12/09 11:03:28;;;;;;;81.38;47.72;;;1.10;99.90;;;;;;4968654;28;20633;-73
2022/12/09 11:06:24;;;;;;;93.40;56.38;;;1.10;99.90;;;;;;4951093;28;20389;-73
2022/12/09 11:08:56;;;;;;;;;;;1.20;99.90;;;;;;4932623;28;20665;-74
2022/12/09 11:11:48;;;;;;;51.15;42.88;;;1.30;99.90;;;;;;4938993;28;20415;-74
2022/12/09 11:14:25;;;;;;;44.67;38.67;;;1.30;99.90;;;;;;4944029;28;20286;-73
2022/12/09 11:16:55;;;;;;;43.45;38.53;;;1.30;99.90;;;;;;4960816;28;20038;-74
2022/12/09 11:19:35;;;;;;;46.72;38.17;;;1.20;99.90;;;;;;4956063;28;20682;-76
2022/12/09 11:22:12;;;;;;;43.47;38.35;;;1.20;99.90;;;;;;4957441;28;20518;-74
2022/12/09 11:24:39;;;;;;;45.92;39.78;;;1.30;99.90;;;;;;4956523;28;20161;-73
2022/12/09 11:27:49;;;;;;;44.88;39.97;;;1.40;99.90;;;;;;5000957;28;20041;-74
2022/12/09 11:30:18;;;;;;;45.88;40.88;;;1.50;99.90;;;;;;4875741;29;20052;-73
2022/12/09 11:32:55;;;;;;;53.92;48.45;;;1.40;99.90;;;;;;4961303;28;20082;-76
2022/12/09 11:35:49;;;;;;;50.80;45.50;;;1.60;99.90;;;;;;4960350;28;20042;-75
2022/12/09 11:38:37;;;;;;;51.03;45.92;;;1.90;99.90;;;;;;4967441;28;20050;-76
2022/12/09 11:41:12;;;;;;;56.65;50.50;;;1.90;99.90;;;;;;4972069;28;20530;-73
2022/12/09 11:43:46;;;;;;;55.15;49.42;;;1.90;99.90;;;;;;4946190;28;20560;-74
2022/12/09 11:46:13;;;;;;;57.17;51.45;;;2.00;99.90;;;;;;4965451;28;20096;-74
2022/12/09 11:48:48;;;;;;;96.78;86.32;;;2.10;99.90;;;;;;4937386;28;20333;-74
2022/12/09 11:51:22;;;;;;;;;;;2.20;99.90;;;;;;4963670;28;20530;-75
2022/12/09 11:53:52;;;;;;;58.40;52.30;;;2.10;99.90;;;;;;4958572;28;20200;-73
2022/12/09 11:56:27;;;;;;;82.32;60.92;;;2.10;99.90;;;;;;4962305;28;20034;-73
2022/12/09 11:59:02;;;;;;;68.43;55.35;;;2.10;99.90;;;;;;4949371;28;20060;-73
2022/12/09 12:01:47;;;;;;;;;;;1.80;99.90;;;;;;4966503;28;20084;-73
2022/12/09 12:04:18;;;;;;;77.70;60.13;;;1.60;99.90;;;;;;4945734;28;19922;-73
2022/12/09 12:06:49;;;;;;;61.10;47.47;;;1.50;99.90;;;;;;4966131;28;20343;-73
2022/12/09 12:09:22;;;;;;;75.40;55.63;;;1.30;99.90;;;;;;4942155;28;20056;-74
2022/12/09 12:12:08;;;;;;;72.72;48.88;;;1.30;99.90;;;;;;4961477;28;20397;-74
2022/12/09 12:14:39;;;;;;;62.10;44.22;;;1.40;99.90;;;;;;4963878;28;20563;-74
2022/12/09 12:17:30;;;;;;;75.32;48.67;;;1.40;99.90;;;;;;4962775;28;20270;-74
2022/12/09 12:19:58;;;;;;;75.05;46.90;;;1.50;99.90;;;;;;4971670;28;20089;-74
2022/12/09 12:22:46;;;;;;;78.40;57.08;;;1.50;99.90;;;;;;4954740;28;20050;-75
2022/12/09 12:25:41;;;;;;;74.28;47.58;;;1.40;99.90;;;;;;4946279;28;20046;-74
2022/12/09 12:28:17;;;;;;;75.38;49.75;;;1.50;99.90;;;;;;4967075;28;20052;-74
2022/12/09 12:31:38;;;;;;;82.65;51.20;;;1.50;99.90;;;;;;4941560;28;20050;-74
2022/12/09 12:34:36;;;;;;;81.00;52.50;;;1.70;99.90;;;;;;4850871;29;20711;-74
2022/12/09 12:37:22;;;;;;;76.47;50.25;;;1.60;99.90;;;;;;4963508;28;20046;-74
2022/12/09 12:40:20;;;;;;;79.43;50.47;;;1.50;99.90;;;;;;4961509;28;20052;-74
2022/12/09 12:46:16;;;;;;;81.55;53.90;;;1.60;99.90;;;;;;4954437;28;20135;-74
2022/12/09 12:49:14;;;;;;;73.82;49.45;;;1.60;99.90;;;;;;4966756;28;21098;-74
2022/12/09 12:51:59;;;;;;;76.05;50.55;;;1.50;99.90;;;;;;4955146;28;20038;-75
2022/12/09 12:54:34;;;;;;;77.35;51.85;;;1.50;99.90;;;;;;4937261;28;20450;-75
2022/12/09 12:57:26;;;;;;;77.68;49.90;;;1.40;99.90;;;;;;4960831;28;20527;-74
2022/12/09 13:00:09;;;;;;;84.35;56.95;;;1.40;99.90;;;;;;4954699;28;20121;-73
2022/12/09 13:02:42;;;;;;;74.35;49.75;;;1.30;99.90;;;;;;4933246;28;20038;-73
2022/12/09 13:05:38;;;;;;;83.30;49.28;;;1.20;99.90;;;;;;4945957;28;20049;-73
2022/12/09 13:08:08;;;;;;;;;;;1.20;99.90;;;;;;4938014;28;20042;-73